Gaschem Phoenix — ELUO6 — position and weather

sailwx.info

Track history (hours):
 
Tides and Currents Weather Stations Pressure Air Temp Water Temp Dewpoint Dewpoint Depression Visibility Wind Speed Wind Dir Waves Ship Positions

Gaschem Phoenix

Last reported at 2015-Jul-29 16:33 UTC. Time now 2015-Aug-04 22:01 UTC.
Position N 34°24' E 123°43'.

Length 100 m; draft 4.3 m.

Type: Ship. MMSI: 636090235.

Date/timePositionNaut miles runAvg speedWind from/ knotsBaromVisibWave heightAir tempDewpointWater temp
2015-Jul-29 16:33N 34°24' E 123°43'1111.3
2015-Jul-29 15:33N 34°28' E 123°30'16211.6
2015-Jul-29 01:31N 35°04' E 120°17'1212.4
2015-Jul-29 00:32N 35°05' E 120°03'1312.4
2015-Jul-28 23:32N 35°07' E 119°48'1212.0
2015-Jul-28 22:31N 35°06' E 119°33'8 7.7
2015-Jul-28 21:33N 35°08' E 119°24'1 0.0
2015-Jul-27 06:33N 35°07' E 119°24'9 9.0
2015-Jul-27 05:33N 35°06' E 119°35'7 6.3
2015-Jul-27 04:23N 35°04' E 119°44'0 0.0
2015-Jul-27 03:22N 35°04' E 119°44'0 0.0
2015-Jul-27 02:28N 35°04' E 119°44'0 0.0
2015-Jul-27 01:21N 35°04' E 119°44'0 0.1
2015-Jul-27 00:27N 35°04' E 119°44'0 0.1
2015-Jul-26 23:33N 35°04' E 119°44'0 0.0
2015-Jul-26 22:14N 35°04' E 119°44'0 0.0
2015-Jul-26 20:25N 35°04' E 119°44'0 0.0
2015-Jul-26 19:25N 35°04' E 119°44'0 0.1
2015-Jul-26 18:24N 35°04' E 119°44'0 0.0
2015-Jul-26 17:24N 35°04' E 119°44'0 0.0
2015-Jul-26 14:05N 35°04' E 119°44'0 0.0
2015-Jul-26 13:22N 35°04' E 119°44'0 0.0
2015-Jul-26 12:22N 35°05' E 119°44'0 0.0
2015-Jul-26 11:28N 35°05' E 119°44'0 0.0
2015-Jul-26 10:33N 35°04' E 119°44'0 0.0
2015-Jul-26 09:26N 35°05' E 119°44'0 0.0
2015-Jul-26 08:20N 35°04' E 119°44'0 0.0
2015-Jul-26 07:32N 35°05' E 119°44'0 0.0
2015-Jul-26 05:13N 35°04' E 119°44'0 0.0
2015-Jul-26 04:31N 35°04' E 119°44'0 0.0
2015-Jul-26 03:24N 35°04' E 119°44'0 0.0
2015-Jul-26 02:29N 35°04' E 119°44'0 0.0
2015-Jul-26 01:29N 35°04' E 119°44'0 0.0
2015-Jul-25 23:22N 35°04' E 119°44'0 0.1
2015-Jul-25 22:28N 35°04' E 119°44'0 0.0
2015-Jul-25 21:33N 35°04' E 119°44'0 0.0
2015-Jul-25 20:27N 35°04' E 119°44'0 0.0
2015-Jul-25 19:14N 35°04' E 119°44'0 0.0
2015-Jul-25 18:20N 35°04' E 119°44'0 0.0
2015-Jul-25 15:31N 35°04' E 119°44'0 0.0
2015-Jul-25 14:24N 35°04' E 119°44'0 0.0
2015-Jul-25 13:30N 35°04' E 119°44'0 0.0
2015-Jul-25 12:18N 35°04' E 119°44'0 0.0
2015-Jul-25 11:29N 35°04' E 119°44'0 0.0
2015-Jul-25 10:16N 35°05' E 119°44'0 0.0
2015-Jul-25 09:16N 35°05' E 119°44'0 0.1
2015-Jul-25 08:33N 35°04' E 119°44'7 7.2
2015-Jul-25 07:33N 35°05' E 119°53'8 8.2
2015-Jul-25 06:33N 35°05' E 120°03'9 8.3
2015-Jul-25 05:25N 35°04' E 120°14'7 8.5
2015-Jul-25 04:33N 35°03' E 120°23'9 8.8
2015-Jul-25 03:32N 35°02' E 120°34'263 6.9
2015-Jul-23 13:33N 30°59' E 122°34'1111.3
2015-Jul-23 12:32N 31°01' E 122°21'1111.2
2015-Jul-23 11:33N 31°03' E 122°08'1313.4
2015-Jul-23 10:33N 31°08' E 121°54'1312.6
2015-Jul-23 09:33N 31°18' E 121°44'1211.6
2015-Jul-23 08:34N 31°24' E 121°33'8 7.8
2015-Jul-23 07:33N 31°29' E 121°26'1010.4
2015-Jul-23 06:33N 31°36' E 121°17'1313.2
2015-Jul-23 05:33N 31°45' E 121°05'1312.8
2015-Jul-23 04:32N 31°53' E 120°53'1212.1
2015-Jul-23 03:33N 32°00' E 120°42'1313.0
2015-Jul-23 02:33N 32°04' E 120°27'1312.8
2015-Jul-23 01:33N 31°56' E 120°15'12 0.3
2015-Jul-21 04:28N 31°58' E 120°01'7 7.6
2015-Jul-21 03:31N 31°56' E 120°09'8 8.2
2015-Jul-21 02:33N 31°58' E 120°18'9 9.1
2015-Jul-21 01:32N 32°04' E 120°27'8 8.3
2015-Jul-21 00:33N 32°01' E 120°36'10 9.5
2015-Jul-20 23:31N 32°01' E 120°47'1010.6
2015-Jul-20 22:33N 31°52' E 120°54'1110.7
2015-Jul-20 21:33N 31°46' E 121°04'1312.8
2015-Jul-20 20:33N 31°38' E 121°16'5 4.9
2015-Jul-20 19:31N 31°35' E 121°20'0 0.0
2015-Jul-20 18:31N 31°35' E 121°20'0 0.1
2015-Jul-20 17:33N 31°34' E 121°20'0 0.1
2015-Jul-20 16:33N 31°34' E 121°20'0 0.0
2015-Jul-20 15:33N 31°34' E 121°20'0 0.0
2015-Jul-20 14:32N 31°34' E 121°20'0 0.0
2015-Jul-20 13:32N 31°34' E 121°20'0 0.0
2015-Jul-20 12:31N 31°34' E 121°20'0 0.0
2015-Jul-20 11:33N 31°34' E 121°20'0 0.0
2015-Jul-20 10:33N 31°34' E 121°20'0 0.1
2015-Jul-20 09:32N 31°34' E 121°20'0 0.1
2015-Jul-20 08:32N 31°34' E 121°20'0 0.0
2015-Jul-20 07:24N 31°35' E 121°20'7 7.8
2015-Jul-20 06:33N 31°30' E 121°26'9 9.0
2015-Jul-20 05:33N 31°24' E 121°34'9 9.1
2015-Jul-20 04:33N 31°19' E 121°42'1211.6
2015-Jul-20 03:33N 31°10' E 121°51'1212.0
2015-Jul-20 02:34N 31°04' E 122°04'1211.8
2015-Jul-20 01:32N 31°03' E 122°18'  
Track history (hours):
 
Tides and Currents Weather Stations Pressure Air Temp Water Temp Dewpoint Dewpoint Depression Visibility Wind Speed Wind Dir Waves Ship Positions

Gaschem Phoenix

Last reported at 2015-Jul-29 16:33 UTC. Time now 2015-Aug-04 22:01 UTC.
Position N 34°24' E 123°43'.

Length 100 m; draft 4.3 m.

Type: Ship. MMSI: 636090235.

Date/timePositionNaut miles runAvg speedWind from/ knotsBaromVisibWave heightAir tempDewpointWater temp
2015-Jul-29 16:33N 34°24' E 123°43'1111.3
2015-Jul-29 15:33N 34°28' E 123°30'16211.6
2015-Jul-29 01:31N 35°04' E 120°17'1212.4
2015-Jul-29 00:32N 35°05' E 120°03'1312.4
2015-Jul-28 23:32N 35°07' E 119°48'1212.0
2015-Jul-28 22:31N 35°06' E 119°33'8 7.7
2015-Jul-28 21:33N 35°08' E 119°24'1 0.0
2015-Jul-27 06:33N 35°07' E 119°24'9 9.0
2015-Jul-27 05:33N 35°06' E 119°35'7 6.3
2015-Jul-27 04:23N 35°04' E 119°44'0 0.0
2015-Jul-27 03:22N 35°04' E 119°44'0 0.0
2015-Jul-27 02:28N 35°04' E 119°44'0 0.0
2015-Jul-27 01:21N 35°04' E 119°44'0 0.1
2015-Jul-27 00:27N 35°04' E 119°44'0 0.1
2015-Jul-26 23:33N 35°04' E 119°44'0 0.0
2015-Jul-26 22:14N 35°04' E 119°44'0 0.0
2015-Jul-26 20:25N 35°04' E 119°44'0 0.0
2015-Jul-26 19:25N 35°04' E 119°44'0 0.1
2015-Jul-26 18:24N 35°04' E 119°44'0 0.0
2015-Jul-26 17:24N 35°04' E 119°44'0 0.0
2015-Jul-26 14:05N 35°04' E 119°44'0 0.0
2015-Jul-26 13:22N 35°04' E 119°44'0 0.0
2015-Jul-26 12:22N 35°05' E 119°44'0 0.0
2015-Jul-26 11:28N 35°05' E 119°44'0 0.0
2015-Jul-26 10:33N 35°04' E 119°44'0 0.0
2015-Jul-26 09:26N 35°05' E 119°44'0 0.0
2015-Jul-26 08:20N 35°04' E 119°44'0 0.0
2015-Jul-26 07:32N 35°05' E 119°44'0 0.0
2015-Jul-26 05:13N 35°04' E 119°44'0 0.0
2015-Jul-26 04:31N 35°04' E 119°44'0 0.0
2015-Jul-26 03:24N 35°04' E 119°44'0 0.0
2015-Jul-26 02:29N 35°04' E 119°44'0 0.0
2015-Jul-26 01:29N 35°04' E 119°44'0 0.0
2015-Jul-25 23:22N 35°04' E 119°44'0 0.1
2015-Jul-25 22:28N 35°04' E 119°44'0 0.0
2015-Jul-25 21:33N 35°04' E 119°44'0 0.0
2015-Jul-25 20:27N 35°04' E 119°44'0 0.0
2015-Jul-25 19:14N 35°04' E 119°44'0 0.0
2015-Jul-25 18:20N 35°04' E 119°44'0 0.0
2015-Jul-25 15:31N 35°04' E 119°44'0 0.0
2015-Jul-25 14:24N 35°04' E 119°44'0 0.0
2015-Jul-25 13:30N 35°04' E 119°44'0 0.0
2015-Jul-25 12:18N 35°04' E 119°44'0 0.0
2015-Jul-25 11:29N 35°04' E 119°44'0 0.0
2015-Jul-25 10:16N 35°05' E 119°44'0 0.0
2015-Jul-25 09:16N 35°05' E 119°44'0 0.1
2015-Jul-25 08:33N 35°04' E 119°44'7 7.2
2015-Jul-25 07:33N 35°05' E 119°53'8 8.2
2015-Jul-25 06:33N 35°05' E 120°03'9 8.3
2015-Jul-25 05:25N 35°04' E 120°14'7 8.5
2015-Jul-25 04:33N 35°03' E 120°23'9 8.8
2015-Jul-25 03:32N 35°02' E 120°34'263 6.9
2015-Jul-23 13:33N 30°59' E 122°34'1111.3
2015-Jul-23 12:32N 31°01' E 122°21'1111.2
2015-Jul-23 11:33N 31°03' E 122°08'1313.4
2015-Jul-23 10:33N 31°08' E 121°54'1312.6
2015-Jul-23 09:33N 31°18' E 121°44'1211.6
2015-Jul-23 08:34N 31°24' E 121°33'8 7.8
2015-Jul-23 07:33N 31°29' E 121°26'1010.4
2015-Jul-23 06:33N 31°36' E 121°17'1313.2
2015-Jul-23 05:33N 31°45' E 121°05'1312.8
2015-Jul-23 04:32N 31°53' E 120°53'1212.1
2015-Jul-23 03:33N 32°00' E 120°42'1313.0
2015-Jul-23 02:33N 32°04' E 120°27'1312.8
2015-Jul-23 01:33N 31°56' E 120°15'12 0.3
2015-Jul-21 04:28N 31°58' E 120°01'7 7.6
2015-Jul-21 03:31N 31°56' E 120°09'8 8.2
2015-Jul-21 02:33N 31°58' E 120°18'9 9.1
2015-Jul-21 01:32N 32°04' E 120°27'8 8.3
2015-Jul-21 00:33N 32°01' E 120°36'10 9.5
2015-Jul-20 23:31N 32°01' E 120°47'1010.6
2015-Jul-20 22:33N 31°52' E 120°54'1110.7
2015-Jul-20 21:33N 31°46' E 121°04'1312.8
2015-Jul-20 20:33N 31°38' E 121°16'5 4.9
2015-Jul-20 19:31N 31°35' E 121°20'0 0.0
2015-Jul-20 18:31N 31°35' E 121°20'0 0.1
2015-Jul-20 17:33N 31°34' E 121°20'0 0.1
2015-Jul-20 16:33N 31°34' E 121°20'0 0.0
2015-Jul-20 15:33N 31°34' E 121°20'0 0.0
2015-Jul-20 14:32N 31°34' E 121°20'0 0.0
2015-Jul-20 13:32N 31°34' E 121°20'0 0.0
2015-Jul-20 12:31N 31°34' E 121°20'0 0.0
2015-Jul-20 11:33N 31°34' E 121°20'0 0.0
2015-Jul-20 10:33N 31°34' E 121°20'0 0.1
2015-Jul-20 09:32N 31°34' E 121°20'0 0.1
2015-Jul-20 08:32N 31°34' E 121°20'0 0.0
2015-Jul-20 07:24N 31°35' E 121°20'7 7.8
2015-Jul-20 06:33N 31°30' E 121°26'9 9.0
2015-Jul-20 05:33N 31°24' E 121°34'9 9.1
2015-Jul-20 04:33N 31°19' E 121°42'1211.6
2015-Jul-20 03:33N 31°10' E 121°51'1212.0
2015-Jul-20 02:34N 31°04' E 122°04'1211.8
2015-Jul-20 01:32N 31°03' E 122°18'  

Dump ship's entire track history